KAST

Astoria Regional Airport

Airport
ICAO code
KAST
IATA Code
AST
Summary
ICAO Region
NAM
ICAO Territory
Location

Warrenton, Oregon

Serving
Astoria
Elevation
15 ft
Coordinates
46° 9' 21" N , 123° 52' 55" W
KCC
Airport BS
Bird Strike
Metar
Observation
KAST 311907Z AUTO 21009G17KT 4SM -RA SCT016 BKN023 OVC037 08/05 A2995 RMK AO2 P0002 T00780050
Station
Astoria, Astoria Regional Airport
Date/Time
2023-03-31 19:07:00
Wind direction
210°
Wind speed
09 kts
Lowest cloud amount
scattered clouds
Temperature
7.8°C
Dew point
5°C
Humidity
82%
Weather condition
light rain

Description

Astoria Regional Airport is a public use airport located 3 nm southwest of the central business district of Astoria, a city in Clatsop County, Oregon.

Airport map

Aerial View

SKYbrary Partners:

Safety knowledge contributed by: